createdAt,value
2022-08-18T00:25:55.667Z,48.20
2022-08-18T00:40:55.753Z,41.00
2022-08-18T00:55:56.037Z,44.60
2022-08-18T01:10:56.547Z,53.90
2022-08-18T01:25:59.358Z,42.40
2022-08-18T01:41:31.713Z,42.90
2022-08-18T01:56:00.210Z,43.10
2022-08-18T02:11:00.197Z,43.60
2022-08-18T02:25:58.001Z,44.00
2022-08-18T02:40:58.499Z,44.30
2022-08-18T02:56:00.419Z,44.20
2022-08-18T03:10:59.102Z,44.70
2022-08-18T03:25:59.430Z,45.00
2022-08-18T03:40:59.729Z,44.90
2022-08-18T03:55:59.825Z,45.40
2022-08-18T04:11:01.770Z,45.60
2022-08-18T04:26:00.657Z,45.80
2022-08-18T04:41:00.821Z,45.80
2022-08-18T04:56:02.552Z,45.60
2022-08-18T05:11:05.036Z,45.80
2022-08-18T05:26:01.866Z,45.90
2022-08-18T05:41:04.115Z,46.00
2022-08-18T05:56:02.611Z,46.30
2022-08-18T06:11:02.871Z,46.40
2022-08-18T06:26:04.871Z,46.40
2022-08-18T06:41:04.481Z,46.10
2022-08-18T06:56:27.442Z,46.50
2022-08-18T07:11:04.137Z,45.90
2022-08-18T07:26:04.438Z,45.90
2022-08-18T07:41:04.791Z,45.70
2022-08-18T07:56:04.997Z,45.40
2022-08-18T08:11:05.761Z,45.30
2022-08-18T08:26:08.341Z,44.40
2022-08-18T08:41:05.858Z,43.60
2022-08-18T08:56:06.293Z,43.50
2022-08-18T09:11:06.459Z,42.40
2022-08-18T09:26:06.885Z,42.10
2022-08-18T09:41:08.083Z,40.30
2022-08-18T09:56:07.714Z,39.20
2022-08-18T10:11:10.792Z,38.00
2022-08-18T10:26:18.554Z,37.50
2022-08-18T10:41:20.262Z,37.10
2022-08-18T10:56:10.709Z,36.60
2022-08-18T13:04:53.924Z,35.60
2022-08-18T13:11:27.806Z,31.20
2022-08-18T13:26:13.822Z,29.90
2022-08-18T13:41:17.736Z,35.20
2022-08-18T13:56:19.665Z,33.90
2022-08-18T14:11:12.983Z,33.10
2022-08-18T14:26:13.268Z,32.40
2022-08-18T14:41:15.175Z,32.90
2022-08-18T14:56:17.660Z,32.80
2022-08-18T15:11:15.434Z,32.90
2022-08-18T15:26:15.664Z,32.20
2022-08-18T15:41:20.204Z,37.00
2022-08-18T15:56:15.226Z,31.90
2022-08-18T16:11:30.455Z,35.90
2022-08-18T16:41:16.109Z,36.00
2022-08-18T17:11:17.283Z,39.20
2022-08-18T17:41:18.391Z,36.70
2022-08-18T17:56:18.766Z,42.40
2022-08-18T18:11:19.013Z,45.00
2022-08-18T18:26:19.401Z,35.90
2022-08-18T18:41:19.770Z,37.70
2022-08-18T18:56:20.037Z,36.00
2022-08-18T19:11:20.379Z,35.70
2022-08-18T19:26:21.386Z,36.80
2022-08-18T19:41:20.941Z,37.90
2022-08-18T19:56:22.427Z,42.90
2022-08-18T20:11:42.983Z,41.50
2022-08-18T20:26:22.973Z,39.50
2022-08-18T20:41:22.465Z,39.40
2022-08-18T20:56:44.834Z,40.00
2022-08-18T21:11:33.026Z,40.40
2022-08-18T21:26:23.139Z,40.30
2022-08-18T21:41:24.077Z,40.40
2022-08-18T21:56:24.062Z,40.60
2022-08-18T22:12:03.092Z,40.80
2022-08-18T22:26:28.340Z,40.30
2022-08-18T22:41:25.243Z,50.20
2022-08-18T22:56:38.326Z,41.20
2022-08-18T23:11:25.577Z,41.70
2022-08-18T23:26:31.061Z,41.60
2022-08-18T23:41:26.050Z,42.20
2022-08-18T23:56:26.532Z,42.50
